createdAt,value
2022-10-04T00:05:52.538Z,3.13
2022-10-04T00:15:58.725Z,5.47
2022-10-04T00:26:07.888Z,10.43
2022-10-04T00:36:24.776Z,8.20
2022-10-04T00:46:30.455Z,7.38
2022-10-04T00:56:52.131Z,6.60
2022-10-04T01:06:54.582Z,6.88
2022-10-04T01:16:57.457Z,5.03
2022-10-04T01:27:01.005Z,6.40
2022-10-04T01:37:02.833Z,5.70
2022-10-04T01:47:14.221Z,8.45
2022-10-04T01:57:26.901Z,5.10
2022-10-04T02:07:32.850Z,10.23
2022-10-04T02:17:43.697Z,6.70
2022-10-04T02:27:46.800Z,7.45
2022-10-04T02:37:55.329Z,6.00
2022-10-04T02:48:19.537Z,7.55
2022-10-04T02:58:25.581Z,11.98
2022-10-04T03:08:30.186Z,9.18
2022-10-04T03:18:33.018Z,7.35
2022-10-04T03:28:37.283Z,17.53
2022-10-04T03:38:40.293Z,15.27
2022-10-04T03:48:46.882Z,7.87
2022-10-04T03:58:50.845Z,10.18
2022-10-04T04:09:39.574Z,14.43
2022-10-04T04:19:42.498Z,6.05
2022-10-04T04:29:53.547Z,6.00
2022-10-04T04:39:56.012Z,7.28
2022-10-04T04:50:04.339Z,9.68
2022-10-04T05:00:06.730Z,7.80
2022-10-04T05:10:30.589Z,9.18
2022-10-04T05:41:01.360Z,11.88
2022-10-04T05:51:23.191Z,7.43
2022-10-04T06:01:47.312Z,6.50
2022-10-04T06:11:51.949Z,6.28
2022-10-04T06:22:15.607Z,9.70
2022-10-04T06:42:48.471Z,6.65
2022-10-04T06:53:38.517Z,3.20
2022-10-04T07:04:01.041Z,7.88
2022-10-04T07:14:06.226Z,8.93
2022-10-04T07:24:18.379Z,10.57
2022-10-04T07:34:27.229Z,8.65
2022-10-04T07:44:35.342Z,7.15
2022-10-04T07:54:59.161Z,6.70
2022-10-04T08:05:13.345Z,11.77
2022-10-04T08:15:24.979Z,4.03
2022-10-04T08:25:34.232Z,5.55
2022-10-04T08:35:40.380Z,3.42
2022-10-04T08:46:00.917Z,6.20
2022-10-04T08:56:24.352Z,6.57
2022-10-04T09:06:58.805Z,9.18
2022-10-04T09:17:22.887Z,9.00
2022-10-04T09:27:54.713Z,5.03
2022-10-04T09:38:23.543Z,10.30
2022-10-04T09:48:43.545Z,3.47
2022-10-04T09:59:18.696Z,6.97
2022-10-04T10:10:04.900Z,3.20
2022-10-04T10:21:05.340Z,3.65
2022-10-04T10:31:54.569Z,3.90
2022-10-04T10:42:17.923Z,7.50
2022-10-04T10:52:46.864Z,3.85
2022-10-04T11:03:12.188Z,3.00
2022-10-04T11:13:21.471Z,3.58
2022-10-04T11:23:49.256Z,5.28
2022-10-04T11:34:18.533Z,3.28
2022-10-04T11:44:41.260Z,6.85
2022-10-04T11:55:01.796Z,5.70
2022-10-04T12:05:23.789Z,2.25
2022-10-04T12:15:41.126Z,9.02
2022-10-04T12:25:48.709Z,3.08
2022-10-04T12:36:25.201Z,2.95
2022-10-04T12:46:53.476Z,10.40
2022-10-04T12:57:35.768Z,7.68
2022-10-04T13:07:43.558Z,4.78
2022-10-04T13:18:33.177Z,5.95
2022-10-04T13:28:49.327Z,2.97
2022-10-04T13:39:07.566Z,1.70
2022-10-04T13:49:37.739Z,1.17
2022-10-04T13:59:54.367Z,0.73
2022-10-04T14:10:11.403Z,6.88
2022-10-04T14:20:31.348Z,1.75
2022-10-04T14:31:01.967Z,2.60
2022-10-04T14:41:35.512Z,4.40
2022-10-04T14:51:40.068Z,3.28
2022-10-04T15:02:01.605Z,2.47
2022-10-04T15:12:46.006Z,1.75
2022-10-04T15:22:55.998Z,3.15
2022-10-04T15:33:34.890Z,2.75
2022-10-04T15:43:45.080Z,1.58
2022-10-04T15:54:12.711Z,7.07
2022-10-04T16:04:18.248Z,8.05
2022-10-04T16:14:26.219Z,4.90
2022-10-04T16:24:52.434Z,5.05
2022-10-04T16:35:04.423Z,3.22
2022-10-04T16:45:05.949Z,3.53
2022-10-04T16:55:23.487Z,4.93
2022-10-04T17:05:44.538Z,6.78
2022-10-04T17:16:33.926Z,10.15
2022-10-04T17:26:48.632Z,10.05
2022-10-04T17:36:56.377Z,13.73
2022-10-04T17:47:14.317Z,7.88
2022-10-04T17:57:26.235Z,10.88
2022-10-04T18:07:43.860Z,10.15
2022-10-04T18:17:49.380Z,8.88
2022-10-04T18:28:14.757Z,10.98
2022-10-04T18:38:28.724Z,12.60
2022-10-04T18:48:40.760Z,10.10
2022-10-04T18:59:21.063Z,9.98
2022-10-04T19:09:57.218Z,11.18
2022-10-04T19:20:18.953Z,12.73
2022-10-04T19:30:54.282Z,16.55
2022-10-04T19:41:22.896Z,12.57
2022-10-04T19:51:37.176Z,12.65
2022-10-04T20:01:41.241Z,13.82
2022-10-04T20:11:49.784Z,21.52
2022-10-04T20:21:54.570Z,13.65
2022-10-04T20:31:56.303Z,19.10
2022-10-04T20:42:20.219Z,20.60
2022-10-04T20:52:33.273Z,16.35
2022-10-04T21:02:37.118Z,21.43
2022-10-04T21:12:40.615Z,15.32
2022-10-04T21:22:42.728Z,16.67
2022-10-04T21:32:45.892Z,16.23
2022-10-04T21:42:47.556Z,15.32
2022-10-04T21:52:49.178Z,13.65
2022-10-04T22:02:50.771Z,13.57
2022-10-04T22:12:56.824Z,15.30
2022-10-04T22:22:59.246Z,15.98
2022-10-04T22:33:40.789Z,20.55
2022-10-04T22:43:43.110Z,20.17
2022-10-04T22:53:46.885Z,21.83
2022-10-04T23:13:53.656Z,19.73
2022-10-04T23:23:55.410Z,26.52
2022-10-04T23:33:58.078Z,20.90
2022-10-04T23:44:03.483Z,21.05
2022-10-04T23:54:06.290Z,19.10
